Terminal Aerodrome Forecast
Issued by NWS El Paso, TX

Home | Current Version | Previous Version | Text Only | Print | Product List | Glossary On
Versions: 1 2 3 4 5 6 7 8 9 10 11 12 13 14 15 16 17 18
000
FTUS44 KEPZ 221900 AAA
TAFELP
TAF AMD
KELP 221938Z 2220/2318 15006KT P6SM VCSH SCT029 BKN100 OVC150
      TEMPO 2220/2222 -SHRA BKN029 OVC100
     FM222200 24007KT P6SM VCSH SCT040 BKN150
     FM230600 24006KT P6SM SCT060 BKN120
     FM231700 26009KT P6SM SCT060 SCT250=

USA.gov is the U.S. government's official web portal to all federal, state and local government web resources and services.